createdAt,value
2023-04-08T00:00:55.626Z,95313.19
2023-04-08T00:03:22.315Z,95316.19
2023-04-08T00:05:48.952Z,95316.47
2023-04-08T00:08:15.629Z,95324.16
2023-04-08T00:10:42.243Z,95320.31
2023-04-08T00:13:08.811Z,95320.03
2023-04-08T00:15:36.958Z,95326.09
2023-04-08T00:18:03.586Z,95317.59
2023-04-08T00:20:30.274Z,95327.50
2023-04-08T00:22:56.803Z,95325.91
2023-04-08T00:25:25.397Z,95325.06
2023-04-08T00:27:52.529Z,95323.31
2023-04-08T00:30:19.412Z,95317.22
2023-04-08T00:32:46.685Z,95325.34
2023-04-08T00:35:13.978Z,95326.28
2023-04-08T00:37:41.331Z,95326.59
2023-04-08T00:40:08.391Z,95326.59
2023-04-08T00:42:35.015Z,95328.09
2023-04-08T00:45:01.711Z,95334.69
2023-04-08T00:47:28.294Z,95332.34
2023-04-08T00:49:55.038Z,95332.22
2023-04-08T00:52:21.599Z,95340.50
2023-04-08T00:54:48.159Z,95340.38
2023-04-08T00:57:15.366Z,95335.81
2023-04-08T00:59:42.607Z,95333.91
2023-04-08T01:02:35.696Z,95340.78
2023-04-08T01:05:05.681Z,95337.63
2023-04-08T01:07:37.547Z,95342.03
2023-04-08T01:10:30.148Z,95333.78
2023-04-08T01:12:59.282Z,95335.47
2023-04-08T01:15:27.895Z,95330.81
2023-04-08T01:17:56.670Z,95342.16
2023-04-08T01:20:27.743Z,95330.53
2023-04-08T01:23:00.138Z,95329.28
2023-04-08T01:25:32.754Z,95324.78
2023-04-08T01:28:21.232Z,95331.31
2023-04-08T01:30:49.765Z,95330.34
2023-04-08T01:33:18.491Z,95326.56
2023-04-08T01:35:46.254Z,95321.38
2023-04-08T01:38:16.480Z,95326.78
2023-04-08T01:40:44.482Z,95325.28
2023-04-08T01:43:14.902Z,95325.44
2023-04-08T01:45:43.916Z,95325.84
2023-04-08T01:48:12.476Z,95323.75
2023-04-08T01:50:41.500Z,95323.94
2023-04-08T01:53:10.065Z,95325.22
2023-04-08T01:55:39.072Z,95324.50
2023-04-08T01:58:07.689Z,95327.16
2023-04-08T02:00:35.983Z,95331.13
2023-04-08T02:03:05.892Z,95324.28
2023-04-08T02:05:32.729Z,95321.88
2023-04-08T02:07:59.337Z,95329.81
2023-04-08T02:10:27.418Z,95320.16
2023-04-08T02:12:55.547Z,95333.34
2023-04-08T02:15:22.436Z,95327.31
2023-04-08T02:18:00.704Z,95329.22
2023-04-08T02:20:34.671Z,95324.69
2023-04-08T02:23:14.597Z,95329.50
2023-04-08T02:25:44.319Z,95336.78
2023-04-08T02:28:12.107Z,95328.22
2023-04-08T02:30:43.634Z,95335.94
2023-04-08T02:33:12.317Z,95327.78
2023-04-08T02:35:41.360Z,95328.28
2023-04-08T02:38:10.238Z,95335.13
2023-04-08T02:40:37.719Z,95332.09
2023-04-08T02:43:04.354Z,95336.66
2023-04-08T02:45:33.842Z,95331.72
2023-04-08T02:48:01.489Z,95340.91
2023-04-08T02:50:28.162Z,95332.50
2023-04-08T02:52:55.039Z,95333.78
2023-04-08T02:55:21.658Z,95334.03
2023-04-08T02:57:48.901Z,95334.84
2023-04-08T03:00:16.138Z,95328.00
2023-04-08T03:02:42.796Z,95328.13
2023-04-08T03:05:09.928Z,95334.44
2023-04-08T03:07:36.605Z,95333.38
2023-04-08T03:10:03.494Z,95330.88
2023-04-08T03:12:30.006Z,95338.88
2023-04-08T03:14:56.536Z,95339.16
2023-04-08T03:17:23.242Z,95334.91
2023-04-08T03:19:49.795Z,95336.81
2023-04-08T03:22:16.383Z,95342.03
2023-04-08T03:24:42.963Z,95339.44
2023-04-08T03:27:09.551Z,95341.34
2023-04-08T03:29:36.070Z,95338.56
2023-04-08T03:32:02.941Z,95334.88
2023-04-08T03:34:29.532Z,95329.09
2023-04-08T03:36:56.047Z,95334.16
2023-04-08T03:39:22.636Z,95335.94
2023-04-08T03:41:49.154Z,95333.44
2023-04-08T03:44:15.853Z,95340.16
2023-04-08T03:46:42.399Z,95340.94
2023-04-08T03:49:08.906Z,95339.06
2023-04-08T03:51:35.424Z,95351.84
2023-04-08T03:54:02.012Z,95350.25
2023-04-08T03:56:28.643Z,95351.25
2023-04-08T03:58:55.184Z,95357.34
2023-04-08T04:01:21.706Z,95347.59
2023-04-08T04:03:48.381Z,95352.00
2023-04-08T04:06:15.280Z,95356.41
2023-04-08T04:08:41.808Z,95357.03
2023-04-08T04:11:08.310Z,95359.25
2023-04-08T04:13:34.826Z,95357.56
2023-04-08T04:16:01.387Z,95360.78
2023-04-08T04:18:27.967Z,95366.50
2023-04-08T04:20:54.564Z,95361.06
2023-04-08T04:23:21.311Z,95367.63
2023-04-08T04:25:47.839Z,95363.06
2023-04-08T04:28:14.382Z,95369.13
2023-04-08T04:30:41.047Z,95367.03
2023-04-08T04:33:07.680Z,95375.34
2023-04-08T04:35:34.561Z,95374.78
2023-04-08T04:38:01.566Z,95372.91
2023-04-08T04:40:28.189Z,95376.09
2023-04-08T04:42:54.764Z,95376.50
2023-04-08T04:45:21.282Z,95375.63
2023-04-08T04:47:47.836Z,95384.81
2023-04-08T04:50:14.386Z,95388.56
2023-04-08T04:52:41.435Z,95382.00
2023-04-08T04:55:08.403Z,95383.72
2023-04-08T04:57:34.908Z,95388.41
2023-04-08T05:00:03.896Z,95386.31
2023-04-08T05:02:32.176Z,95379.97
2023-04-08T05:04:58.865Z,95394.78
2023-04-08T05:07:25.620Z,95393.78
2023-04-08T05:09:52.197Z,95387.69
2023-04-08T05:12:20.591Z,95391.19
2023-04-08T05:14:47.171Z,95396.66
2023-04-08T05:17:13.777Z,95390.41
2023-04-08T05:19:40.417Z,95393.41
2023-04-08T05:22:07.014Z,95384.44
2023-04-08T05:24:33.526Z,95394.16
2023-04-08T05:27:00.059Z,95390.47
2023-04-08T05:29:27.478Z,95386.34
2023-04-08T05:31:54.099Z,95389.69
2023-04-08T05:34:23.040Z,95387.63
2023-04-08T05:36:51.942Z,95386.53
2023-04-08T05:39:19.342Z,95386.03
2023-04-08T05:41:46.540Z,95389.00
2023-04-08T05:44:16.734Z,95387.25
2023-04-08T05:46:43.346Z,95387.94
2023-04-08T05:49:09.992Z,95395.97
2023-04-08T05:51:36.537Z,95400.44
2023-04-08T05:54:03.152Z,95399.97
2023-04-08T05:56:29.751Z,95394.72
2023-04-08T05:58:56.343Z,95396.91
2023-04-08T06:01:22.862Z,95398.75
2023-04-08T06:03:49.665Z,95396.63
2023-04-08T06:06:16.361Z,95400.13
2023-04-08T06:08:42.872Z,95396.31
2023-04-08T06:11:09.643Z,95408.94
2023-04-08T06:13:37.168Z,95401.44
2023-04-08T06:16:11.188Z,95410.97
2023-04-08T06:18:38.018Z,95407.13
2023-04-08T06:21:04.587Z,95411.81
2023-04-08T06:23:31.136Z,95405.13
2023-04-08T06:25:58.525Z,95408.00
2023-04-08T06:28:25.251Z,95409.00
2023-04-08T06:30:51.781Z,95406.44
2023-04-08T06:33:18.316Z,95409.78
2023-04-08T06:35:44.914Z,95414.00
2023-04-08T06:38:11.471Z,95418.09
2023-04-08T06:40:39.587Z,95414.78
2023-04-08T06:43:07.772Z,95418.41
2023-04-08T06:45:38.370Z,95415.84
2023-04-08T06:48:06.678Z,95417.84
2023-04-08T06:50:33.290Z,95425.84
2023-04-08T06:53:00.360Z,95427.38
2023-04-08T06:55:27.079Z,95424.09
2023-04-08T06:57:53.637Z,95426.78
2023-04-08T07:00:20.596Z,95426.38
2023-04-08T07:02:47.353Z,95431.13
2023-04-08T07:05:14.097Z,95424.50
2023-04-08T07:07:40.816Z,95424.38
2023-04-08T07:10:10.363Z,95432.28
2023-04-08T07:12:37.520Z,95436.97
2023-04-08T07:15:04.407Z,95429.34
2023-04-08T07:17:30.966Z,95430.88
2023-04-08T07:19:57.894Z,95431.66
2023-04-08T07:22:24.414Z,95434.00
2023-04-08T07:24:51.115Z,95435.78
2023-04-08T07:27:17.662Z,95439.72
2023-04-08T07:29:44.380Z,95442.56
2023-04-08T07:32:11.180Z,95437.09
2023-04-08T07:34:37.766Z,95452.19
2023-04-08T07:37:04.270Z,95452.28
2023-04-08T07:39:31.086Z,95450.47
2023-04-08T07:41:57.639Z,95453.56
2023-04-08T07:44:24.204Z,95457.31
2023-04-08T07:46:51.788Z,95468.13
2023-04-08T07:49:18.511Z,95459.28
2023-04-08T07:51:45.027Z,95462.75
2023-04-08T07:54:12.518Z,95468.78
2023-04-08T07:56:40.407Z,95464.91
2023-04-08T07:59:07.346Z,95470.72
2023-04-08T08:01:35.684Z,95470.16
2023-04-08T08:04:03.467Z,95475.91
2023-04-08T08:06:32.320Z,95484.00
2023-04-08T08:08:59.470Z,95477.69
2023-04-08T08:11:29.295Z,95469.28
2023-04-08T08:13:55.949Z,95474.09
2023-04-08T08:16:22.825Z,95474.09
2023-04-08T08:18:49.486Z,95478.69
2023-04-08T08:21:16.021Z,95478.94
2023-04-08T08:23:42.627Z,95484.19
2023-04-08T08:26:10.530Z,95490.31
2023-04-08T08:28:38.467Z,95492.78
2023-04-08T08:31:06.123Z,95492.38
2023-04-08T08:33:33.308Z,95500.38
2023-04-08T08:36:00.072Z,95509.13
2023-04-08T08:38:27.201Z,95505.66
2023-04-08T08:40:56.206Z,95507.53
2023-04-08T08:43:23.525Z,95495.72
2023-04-08T08:45:50.125Z,95499.84
2023-04-08T08:48:17.368Z,95507.13
2023-04-08T08:50:44.216Z,95503.31
2023-04-08T08:53:10.756Z,95510.53
2023-04-08T08:56:05.753Z,95509.91
2023-04-08T08:58:29.136Z,95514.06
2023-04-08T09:00:55.882Z,95510.25
2023-04-08T09:03:29.963Z,95509.47
2023-04-08T09:05:58.873Z,95514.63
2023-04-08T09:08:33.460Z,95512.50
2023-04-08T09:11:16.310Z,95520.19
2023-04-08T09:13:44.212Z,95519.22
2023-04-08T09:16:12.850Z,95529.78
2023-04-08T09:18:40.999Z,95533.91
2023-04-08T09:21:07.576Z,95536.31
2023-04-08T09:23:42.952Z,95537.72
2023-04-08T09:26:12.963Z,95540.31
2023-04-08T09:28:41.134Z,95527.91
2023-04-08T09:31:28.693Z,95542.00
2023-04-08T09:34:00.170Z,95534.53
2023-04-08T09:36:27.429Z,95532.13
2023-04-08T09:38:55.017Z,95534.75
2023-04-08T09:41:23.600Z,95538.78
2023-04-08T09:43:56.968Z,95547.50
2023-04-08T09:46:37.696Z,95547.78
2023-04-08T09:49:28.677Z,95538.69
2023-04-08T09:52:08.618Z,95545.44
2023-04-08T09:54:55.835Z,95543.09
2023-04-08T09:57:33.408Z,95536.59
2023-04-08T10:00:12.987Z,95542.53
2023-04-08T10:03:04.892Z,95547.09
2023-04-08T10:05:31.969Z,95540.84
2023-04-08T10:07:59.092Z,95531.91
2023-04-08T10:10:27.185Z,95545.44
2023-04-08T10:12:54.172Z,95527.75
2023-04-08T10:15:26.833Z,95534.63
2023-04-08T10:17:55.115Z,95532.41
2023-04-08T10:20:42.528Z,95525.00
2023-04-08T10:23:11.362Z,95538.00
2023-04-08T10:25:39.195Z,95529.00
2023-04-08T10:28:11.837Z,95529.34
2023-04-08T10:30:38.952Z,95532.69
2023-04-08T10:33:13.618Z,95525.91
2023-04-08T10:35:48.381Z,95522.38
2023-04-08T10:38:16.705Z,95525.47
2023-04-08T10:40:44.509Z,95523.09
2023-04-08T10:43:13.297Z,95528.88
2023-04-08T10:45:41.110Z,95526.50
2023-04-08T10:48:24.674Z,95528.88
2023-04-08T10:50:57.245Z,95523.25
2023-04-08T10:53:27.227Z,95522.00
2023-04-08T10:55:54.405Z,95526.97
2023-04-08T10:58:21.823Z,95516.22
2023-04-08T11:00:48.338Z,95520.66
2023-04-08T11:03:15.803Z,95518.03
2023-04-08T11:05:42.578Z,95508.22
2023-04-08T11:08:09.163Z,95516.81
2023-04-08T11:10:39.024Z,95512.31
2023-04-08T11:13:09.784Z,95513.88
2023-04-08T11:15:37.161Z,95519.81
2023-04-08T11:18:05.493Z,95523.50
2023-04-08T11:20:36.019Z,95519.88
2023-04-08T11:23:03.475Z,95522.09
2023-04-08T11:25:30.345Z,95527.59
2023-04-08T11:27:57.009Z,95520.91
2023-04-08T11:30:24.155Z,95523.31
2023-04-08T11:32:52.156Z,95522.00
2023-04-08T11:35:18.854Z,95526.25
2023-04-08T11:37:47.574Z,95525.38
2023-04-08T11:40:20.997Z,95524.13
2023-04-08T11:42:47.861Z,95518.69
2023-04-08T11:45:16.832Z,95526.75
2023-04-08T11:47:44.253Z,95516.19
2023-04-08T11:50:10.832Z,95525.19
2023-04-08T11:52:45.424Z,95525.75
2023-04-08T11:55:13.257Z,95527.47
2023-04-08T11:57:39.856Z,95527.63
2023-04-08T12:00:07.763Z,95529.56
2023-04-08T12:02:37.454Z,95532.28
2023-04-08T12:05:04.187Z,95528.66
2023-04-08T12:07:30.783Z,95535.75
2023-04-08T12:09:57.309Z,95539.94
2023-04-08T12:12:23.970Z,95535.81
2023-04-08T12:14:50.624Z,95547.00
2023-04-08T12:17:17.190Z,95542.41
2023-04-08T12:19:43.747Z,95545.63
2023-04-08T12:22:10.315Z,95545.31
2023-04-08T12:24:36.837Z,95549.28
2023-04-08T12:27:04.970Z,95550.22
2023-04-08T12:29:31.980Z,95556.13
2023-04-08T12:31:58.912Z,95549.47
2023-04-08T12:34:25.637Z,95550.56
2023-04-08T12:36:52.197Z,95558.06
2023-04-08T12:39:18.869Z,95553.81
2023-04-08T12:41:45.426Z,95563.28
2023-04-08T12:44:12.029Z,95564.13
2023-04-08T12:46:38.533Z,95560.75
2023-04-08T12:49:06.091Z,95567.94
2023-04-08T12:51:33.354Z,95559.91
2023-04-08T12:54:01.179Z,95560.75
2023-04-08T12:56:27.760Z,95568.72
2023-04-08T12:58:55.708Z,95575.84
2023-04-08T13:01:22.290Z,95568.16
2023-04-08T13:03:49.260Z,95565.91
2023-04-08T13:06:16.651Z,95571.72
2023-04-08T13:08:43.225Z,95568.97
2023-04-08T13:11:09.764Z,95572.69
2023-04-08T13:13:36.585Z,95563.19
2023-04-08T13:16:03.193Z,95573.91
2023-04-08T13:18:29.874Z,95576.03
2023-04-08T13:20:57.991Z,95570.06
2023-04-08T13:23:24.545Z,95572.97
2023-04-08T13:25:51.410Z,95578.44
2023-04-08T13:28:18.017Z,95570.78
2023-04-08T13:30:44.570Z,95576.19
2023-04-08T13:33:11.124Z,95573.00
2023-04-08T13:35:37.687Z,95581.13
2023-04-08T13:38:04.310Z,95585.66
2023-04-08T13:40:31.753Z,95578.88
2023-04-08T13:42:58.542Z,95572.34
2023-04-08T13:45:25.218Z,95579.63
2023-04-08T13:47:51.852Z,95579.91
2023-04-08T13:50:18.452Z,95575.66
2023-04-08T13:52:45.031Z,95587.25
2023-04-08T13:55:11.563Z,95579.72
2023-04-08T13:57:38.085Z,95591.84
2023-04-08T14:00:05.087Z,95594.44
2023-04-08T14:02:37.171Z,95589.38
2023-04-08T14:05:04.408Z,95600.63
2023-04-08T14:07:30.954Z,95590.31
2023-04-08T14:09:57.489Z,95593.88
2023-04-08T14:12:24.033Z,95593.34
2023-04-08T14:14:50.587Z,95599.00
2023-04-08T14:17:17.183Z,95598.03
2023-04-08T14:19:43.757Z,95600.50
2023-04-08T14:22:10.405Z,95601.16
2023-04-08T14:24:36.924Z,95598.53
2023-04-08T14:27:03.570Z,95606.56
2023-04-08T14:29:30.337Z,95606.94
2023-04-08T14:31:56.860Z,95604.59
2023-04-08T14:34:24.035Z,95614.00
2023-04-08T14:36:50.561Z,95611.09
2023-04-08T14:39:17.082Z,95613.41
2023-04-08T14:41:43.704Z,95612.63
2023-04-08T14:44:10.409Z,95617.28
2023-04-08T14:46:37.306Z,95620.47
2023-04-08T14:49:04.085Z,95617.53
2023-04-08T14:51:31.473Z,95618.75
2023-04-08T14:53:58.029Z,95610.72
2023-04-08T14:56:24.561Z,95618.28
2023-04-08T14:58:51.348Z,95616.41
2023-04-08T15:01:18.105Z,95616.44
2023-04-08T15:03:44.782Z,95615.09
2023-04-08T15:06:16.726Z,95615.56
2023-04-08T15:08:43.896Z,95621.56
2023-04-08T15:11:10.433Z,95619.84
2023-04-08T15:13:36.929Z,95623.41
2023-04-08T15:16:03.907Z,95621.56
2023-04-08T15:18:30.683Z,95624.28
2023-04-08T15:20:58.075Z,95623.81
2023-04-08T15:23:24.652Z,95617.91
2023-04-08T15:25:51.259Z,95628.31
2023-04-08T15:28:17.775Z,95632.44
2023-04-08T15:30:44.296Z,95628.47
2023-04-08T15:33:10.843Z,95637.00
2023-04-08T15:35:40.735Z,95634.09
2023-04-08T15:38:07.775Z,95629.94
2023-04-08T15:40:34.434Z,95629.41
2023-04-08T15:43:01.513Z,95637.53
2023-04-08T15:45:28.555Z,95636.69
2023-04-08T15:47:55.574Z,95637.75
2023-04-08T15:50:22.387Z,95637.00
2023-04-08T15:52:49.384Z,95645.28
2023-04-08T15:55:16.040Z,95641.38
2023-04-08T15:57:42.591Z,95637.00
2023-04-08T16:00:10.754Z,95642.69
2023-04-08T16:02:40.631Z,95644.16
2023-04-08T16:05:07.905Z,95648.25
2023-04-08T16:07:34.469Z,95652.59
2023-04-08T16:10:01.586Z,95652.72
2023-04-08T16:12:28.758Z,95654.50
2023-04-08T16:14:55.490Z,95655.50
2023-04-08T16:17:22.108Z,95663.38
2023-04-08T16:19:50.505Z,95660.44
2023-04-08T16:22:17.350Z,95665.50
2023-04-08T16:24:43.888Z,95666.19
2023-04-08T16:27:10.565Z,95667.53
2023-04-08T16:29:37.082Z,95665.31
2023-04-08T16:32:04.617Z,95666.81
2023-04-08T16:34:31.181Z,95673.66
2023-04-08T16:36:57.736Z,95673.41
2023-04-08T16:39:24.270Z,95677.41
2023-04-08T16:41:51.388Z,95677.00
2023-04-08T16:44:17.894Z,95683.16
2023-04-08T16:46:44.443Z,95678.81
2023-04-08T16:49:13.403Z,95679.06
2023-04-08T16:51:41.115Z,95680.59
2023-04-08T16:54:07.615Z,95681.56
2023-04-08T16:56:34.191Z,95687.88
2023-04-08T16:59:00.697Z,95684.19
2023-04-08T17:01:27.248Z,95684.72
2023-04-08T17:03:54.147Z,95685.25
2023-04-08T17:06:20.946Z,95693.41
2023-04-08T17:08:47.512Z,95692.16
2023-04-08T17:11:15.559Z,95690.78
2023-04-08T17:13:43.948Z,95689.22
2023-04-08T17:16:15.650Z,95694.72
2023-04-08T17:18:42.965Z,95693.44
2023-04-08T17:21:09.987Z,95694.31
2023-04-08T17:23:36.538Z,95699.13
2023-04-08T17:26:09.991Z,95703.25
2023-04-08T17:28:36.515Z,95700.00
2023-04-08T17:31:03.125Z,95707.31
2023-04-08T17:33:29.797Z,95704.38
2023-04-08T17:35:56.428Z,95702.97
2023-04-08T17:38:23.037Z,95705.75
2023-04-08T17:40:49.592Z,95713.59
2023-04-08T17:43:16.342Z,95708.38
2023-04-08T17:45:42.950Z,95717.28
2023-04-08T17:48:09.898Z,95713.72
2023-04-08T17:50:36.669Z,95718.03
2023-04-08T17:53:03.257Z,95716.53
2023-04-08T17:55:29.812Z,95714.28
2023-04-08T17:57:56.379Z,95721.59
2023-04-08T18:00:22.942Z,95717.06
2023-04-08T18:02:50.306Z,95724.88
2023-04-08T18:05:16.965Z,95724.88
2023-04-08T18:07:43.537Z,95723.50
2023-04-08T18:10:10.122Z,95727.09
2023-04-08T18:12:36.761Z,95733.00
2023-04-08T18:15:03.566Z,95736.03
2023-04-08T18:17:30.409Z,95744.69
2023-04-08T18:19:58.434Z,95747.22
2023-04-08T18:22:26.125Z,95746.50
2023-04-08T18:24:52.702Z,95755.09
2023-04-08T18:27:19.265Z,95753.16
2023-04-08T18:29:45.918Z,95757.56
2023-04-08T18:32:12.587Z,95755.91
2023-04-08T18:34:39.101Z,95754.94
2023-04-08T18:37:05.932Z,95763.47
2023-04-08T18:39:32.542Z,95769.28
2023-04-08T18:41:59.086Z,95766.25
2023-04-08T18:44:25.759Z,95772.31
2023-04-08T18:46:52.378Z,95776.31
2023-04-08T18:49:18.932Z,95786.78
2023-04-08T18:51:59.136Z,95785.53
2023-04-08T18:54:28.801Z,95783.16
2023-04-08T18:56:55.433Z,95780.28
2023-04-08T18:59:22.137Z,95792.69
2023-04-08T19:01:48.919Z,95786.50
2023-04-08T19:04:16.536Z,95788.28
2023-04-08T19:06:43.055Z,95784.59
2023-04-08T19:09:09.712Z,95797.69
2023-04-08T19:11:36.353Z,95796.84
2023-04-08T19:14:02.844Z,95797.66
2023-04-08T19:16:29.383Z,95798.47
2023-04-08T19:18:56.080Z,95793.53
2023-04-08T19:21:23.184Z,95798.56
2023-04-08T19:23:50.018Z,95806.19
2023-04-08T19:26:17.232Z,95810.63
2023-04-08T19:28:43.842Z,95808.94
2023-04-08T19:31:18.169Z,95809.09
2023-04-08T19:33:44.916Z,95806.47
2023-04-08T19:36:11.927Z,95805.66
2023-04-08T19:38:38.784Z,95816.66
2023-04-08T19:41:05.386Z,95812.53
2023-04-08T19:43:31.894Z,95809.63
2023-04-08T19:45:58.818Z,95821.22
2023-04-08T19:48:26.015Z,95816.94
2023-04-08T19:50:52.543Z,95823.25
2023-04-08T19:53:19.066Z,95815.28
2023-04-08T19:55:45.832Z,95813.91
2023-04-08T19:58:12.396Z,95819.13
2023-04-08T20:00:39.311Z,95817.22
2023-04-08T20:03:06.331Z,95819.16
2023-04-08T20:05:33.352Z,95820.41
2023-04-08T20:07:59.932Z,95817.34
2023-04-08T20:10:26.547Z,95819.97
2023-04-08T20:12:53.726Z,95820.25
2023-04-08T20:15:24.815Z,95820.66
2023-04-08T20:17:52.983Z,95823.81
2023-04-08T20:20:19.952Z,95820.94
2023-04-08T20:22:46.581Z,95820.81
2023-04-08T20:25:13.251Z,95819.72
2023-04-08T20:27:39.861Z,95824.28
2023-04-08T20:30:07.346Z,95823.44
2023-04-08T20:32:34.666Z,95811.44
2023-04-08T20:35:01.332Z,95824.28
2023-04-08T20:37:28.666Z,95819.03
2023-04-08T20:39:55.164Z,95818.63
2023-04-08T20:42:21.721Z,95818.31
2023-04-08T20:44:48.240Z,95818.59
2023-04-08T20:47:15.502Z,95829.63
2023-04-08T20:49:42.729Z,95818.06
2023-04-08T20:52:09.333Z,95821.38
2023-04-08T20:54:36.130Z,95831.81
2023-04-08T20:57:02.705Z,95822.03
2023-04-08T20:59:29.270Z,95822.47
2023-04-08T21:01:55.824Z,95827.44
2023-04-08T21:04:24.376Z,95827.28
2023-04-08T21:06:51.437Z,95819.56
2023-04-08T21:09:18.019Z,95817.78
2023-04-08T21:11:44.755Z,95812.69
2023-04-08T21:14:11.863Z,95816.81
2023-04-08T21:16:38.396Z,95818.34
2023-04-08T21:19:04.979Z,95821.09
2023-04-08T21:21:32.098Z,95835.69
2023-04-08T21:24:00.456Z,95831.00
2023-04-08T21:26:27.604Z,95828.69
2023-04-08T21:28:54.244Z,95837.22
2023-04-08T21:31:21.008Z,95831.53
2023-04-08T21:33:47.664Z,95835.69
2023-04-08T21:36:14.248Z,95836.22
2023-04-08T21:38:42.030Z,95840.09
2023-04-08T21:41:08.546Z,95836.81
2023-04-08T21:43:35.240Z,95830.44
2023-04-08T21:46:01.876Z,95836.75
2023-04-08T21:48:28.497Z,95829.06
2023-04-08T21:50:55.255Z,95840.34
2023-04-08T21:53:22.335Z,95839.94
2023-04-08T21:55:48.850Z,95839.09
2023-04-08T21:58:16.512Z,95841.59
2023-04-08T22:00:43.059Z,95836.34
2023-04-08T22:03:09.689Z,95841.19
2023-04-08T22:05:36.786Z,95841.19
2023-04-08T22:08:03.326Z,95838.69
2023-04-08T22:10:29.878Z,95839.09
2023-04-08T22:12:56.378Z,95839.66
2023-04-08T22:15:22.992Z,95833.72
2023-04-08T22:17:49.639Z,95835.78
2023-04-08T22:20:16.233Z,95834.00
2023-04-08T22:22:42.891Z,95832.75
2023-04-08T22:25:09.670Z,95841.31
2023-04-08T22:27:36.342Z,95840.75
2023-04-08T22:30:02.907Z,95840.38
2023-04-08T22:32:29.492Z,95842.31
2023-04-08T22:34:56.324Z,95841.72
2023-04-08T22:37:22.910Z,95846.41
2023-04-08T22:39:49.422Z,95849.59
2023-04-08T22:42:15.911Z,95845.28
2023-04-08T22:44:42.500Z,95850.94
2023-04-08T22:47:09.006Z,95847.81
2023-04-08T22:49:35.594Z,95843.38
2023-04-08T22:52:02.149Z,95853.56
2023-04-08T22:54:28.645Z,95846.13
2023-04-08T22:56:55.683Z,95841.03
2023-04-08T22:59:22.202Z,95839.69
2023-04-08T23:01:48.797Z,95831.84
2023-04-08T23:04:15.445Z,95838.03
2023-04-08T23:06:42.064Z,95843.25
2023-04-08T23:09:08.568Z,95835.69
2023-04-08T23:11:35.202Z,95836.94
2023-04-08T23:14:01.713Z,95838.16
2023-04-08T23:16:28.383Z,95839.00
2023-04-08T23:18:55.053Z,95838.59
2023-04-08T23:21:21.572Z,95837.75
2023-04-08T23:23:48.203Z,95838.88
2023-04-08T23:26:18.852Z,95836.50
2023-04-08T23:28:45.664Z,95844.25
2023-04-08T23:31:12.210Z,95849.47
2023-04-08T23:33:39.084Z,95846.47
2023-04-08T23:36:10.174Z,95846.97
2023-04-08T23:38:39.610Z,95843.81
2023-04-08T23:41:06.925Z,95842.44
2023-04-08T23:43:33.899Z,95842.97
2023-04-08T23:46:00.416Z,95844.09
2023-04-08T23:48:26.983Z,95842.97
2023-04-08T23:50:54.584Z,95839.41
2023-04-08T23:53:21.696Z,95842.84
2023-04-08T23:55:48.304Z,95847.97
2023-04-08T23:58:14.813Z,95841.22
